Ragley, LA (70657)

7:12 AM CST on December 03, 2016 (GMT -0600)
South Beauregard Parish Ragley | | Change Station
Active Advisory: Flash Flood Watch

Elev 105 ft 30.53 °N, 93.23 °W | Updated 8 minutes ago

Rain
Rain
49.7 °F
Feels Like 44 °F
N
15.0
Wind Variable Wind from East
Gusts 18.0 mph

Today
High -- | Low -- °F
--% Chance of Precip.
Yesterday
High -- | Low -- °F
Precip. -- in
Pressure 30.02 in
Visibility 5.0 miles
Clouds Overcast 800 ft
Windchill 44 °F
Dew Point 48 °F
Humidity 94%
Rainfall 0.00 in
Snow Depth Not available.
6:54 AM 5:11 PM
Waxing Crescent, 15% visible
METAR K5R8 031255Z AUTO 08006KT 050V110 5SM RA OVC008 10/09 A3002 RMK AO2 LTG DSNT SE P0016 T00950092
Pressure 30.02 in
Visibility 5.0 miles
Clouds Overcast 800 ft
Windchill 44 °F
Dew Point 48 °F
Humidity 94%
Rainfall 0.00 in
Snow Depth Not available.
6:54 AM 5:11 PM
Waxing Crescent, 15% visible
METAR K5R8 031255Z AUTO 08006KT 050V110 5SM RA OVC008 10/09 A3002 RMK AO2 LTG DSNT SE P0016 T00950092

10-Day Weather Forecast

Almanac

Astronomy

Dec. 03, 2016 Rise Set
Actual Time
Civil Twilight
Nautical Twilight
Astronomical Twilight
Moon
Length of Visible Light
Length of Day
Tomorrow will be .
, % of the Moon is Illuminated

Today's Extremes

State Highs State Lows

Community

WunderPhotos

Upload Photos

1,955,443 photos uploaded!

WunderBlog® & News

Nearby

Air Quality

  Air Quality AQ Index Pollutant
Not available.

Snow Depth

Station Depth Elevation

Earthquake Activity

City Distance Mag. Time & Date
Minimum magnitude displayed is 2.5.

Coastal Water Temperatures

Place Temperature

Stations

Nearby Weather Stations

Station Location Temp. Windchill Dew Point Humidity Wind Precip. Elev Updated Type
                   

Watches & Warnings

Flash Flood Watch
Issued: 3:22 AM CST Dec. 3, 2016 – National Weather Service

... Flash Flood Watch in effect through Monday afternoon...

The National Weather Service in Lake Charles has issued a

* Flash Flood Watch for portions of Louisiana and southeast
Texas... including the following areas... in Louisiana... Allen...
   Beauregard... Calcasieu... Rapides and Vernon. In southeast
Texas... Hardin... Jefferson... northern Jasper... northern
Newton... Orange... southern Jasper... southern Newton and Tyler.

* Through Monday afternoon

* 5 to 8 inches of rainfall is possible in the watch area through
Monday afternoon. Locally higher amounts are possible.

* Impacts include dangerous and potentially life threatening
flash flooding as well as elevated levels on area rivers and
streams.

Precautionary/preparedness actions...

A Flash Flood Watch means that conditions may develop that lead
to flash flooding. Flash flooding is a very dangerous situation.

You should monitor later forecasts and be prepared to take action
should flash flood warnings be issued.